sensor_id;sensor_type;location;lat;lon;timestamp;P1;durP1;ratioP1;P2;durP2;ratioP2
11911;SDS011;6016;41.928;25.556;2024-02-14T00:01:25;0.90;;;0.90;;
11911;SDS011;6016;41.928;25.556;2024-02-14T00:03:51;0.88;;;0.80;;
11911;SDS011;6016;41.928;25.556;2024-02-14T00:06:18;0.73;;;0.73;;
11911;SDS011;6016;41.928;25.556;2024-02-14T00:08:45;1.00;;;0.90;;
11911;SDS011;6016;41.928;25.556;2024-02-14T00:11:14;1.23;;;0.95;;
11911;SDS011;6016;41.928;25.556;2024-02-14T00:13:42;1.00;;;0.80;;
11911;SDS011;6016;41.928;25.556;2024-02-14T00:16:09;1.10;;;0.90;;
11911;SDS011;6016;41.928;25.556;2024-02-14T00:18:36;1.08;;;0.98;;
11911;SDS011;6016;41.928;25.556;2024-02-14T00:21:03;0.80;;;0.80;;
11911;SDS011;6016;41.928;25.556;2024-02-14T00:23:30;2.10;;;0.90;;
11911;SDS011;6016;41.928;25.556;2024-02-14T00:25:57;1.02;;;0.80;;
11911;SDS011;6016;41.928;25.556;2024-02-14T00:28:25;1.50;;;1.00;;
11911;SDS011;6016;41.928;25.556;2024-02-14T00:30:53;1.10;;;0.80;;
11911;SDS011;6016;41.928;25.556;2024-02-14T00:33:20;1.20;;;0.80;;
11911;SDS011;6016;41.928;25.556;2024-02-14T00:35:47;0.85;;;0.70;;
11911;SDS011;6016;41.928;25.556;2024-02-14T00:38:14;0.65;;;0.65;;
11911;SDS011;6016;41.928;25.556;2024-02-14T00:40:41;0.85;;;0.70;;
11911;SDS011;6016;41.928;25.556;2024-02-14T00:43:08;0.82;;;0.82;;
11911;SDS011;6016;41.928;25.556;2024-02-14T00:45:37;0.60;;;0.60;;
11911;SDS011;6016;41.928;25.556;2024-02-14T00:48:04;1.00;;;0.90;;
11911;SDS011;6016;41.928;25.556;2024-02-14T00:50:33;1.50;;;0.82;;
11911;SDS011;6016;41.928;25.556;2024-02-14T00:53:00;0.60;;;0.60;;
11911;SDS011;6016;41.928;25.556;2024-02-14T00:55:27;0.77;;;0.65;;
11911;SDS011;6016;41.928;25.556;2024-02-14T00:57:54;0.40;;;0.40;;
11911;SDS011;6016;41.928;25.556;2024-02-14T01:00:21;0.47;;;0.47;;
11911;SDS011;6016;41.928;25.556;2024-02-14T01:02:49;0.75;;;0.70;;
11911;SDS011;6016;41.928;25.556;2024-02-14T01:05:16;0.60;;;0.60;;
11911;SDS011;6016;41.928;25.556;2024-02-14T01:07:44;0.57;;;0.50;;
11911;SDS011;6016;41.928;25.556;2024-02-14T01:10:11;0.60;;;0.60;;
11911;SDS011;6016;41.928;25.556;2024-02-14T01:12:39;0.80;;;0.68;;
11911;SDS011;6016;41.928;25.556;2024-02-14T01:15:06;0.63;;;0.63;;
11911;SDS011;6016;41.928;25.556;2024-02-14T01:17:34;0.80;;;0.70;;
11911;SDS011;6016;41.928;25.556;2024-02-14T01:20:05;0.70;;;0.70;;
11911;SDS011;6016;41.928;25.556;2024-02-14T01:22:34;0.57;;;0.50;;
11911;SDS011;6016;41.928;25.556;2024-02-14T01:25:01;1.30;;;0.70;;
11911;SDS011;6016;41.928;25.556;2024-02-14T01:27:29;0.95;;;0.73;;
11911;SDS011;6016;41.928;25.556;2024-02-14T01:29:56;0.60;;;0.60;;
11911;SDS011;6016;41.928;25.556;2024-02-14T01:32:24;0.70;;;0.70;;
11911;SDS011;6016;41.928;25.556;2024-02-14T01:34:54;5.35;;;0.60;;
11911;SDS011;6016;41.928;25.556;2024-02-14T01:37:23;0.70;;;0.70;;
11911;SDS011;6016;41.928;25.556;2024-02-14T01:39:50;1.50;;;0.80;;
11911;SDS011;6016;41.928;25.556;2024-02-14T01:42:17;0.73;;;0.50;;
11911;SDS011;6016;41.928;25.556;2024-02-14T01:44:44;0.80;;;0.80;;
11911;SDS011;6016;41.928;25.556;2024-02-14T01:47:11;0.75;;;0.52;;
11911;SDS011;6016;41.928;25.556;2024-02-14T01:49:38;0.80;;;0.80;;
11911;SDS011;6016;41.928;25.556;2024-02-14T01:52:08;0.60;;;0.60;;
11911;SDS011;6016;41.928;25.556;2024-02-14T01:54:37;0.70;;;0.70;;
11911;SDS011;6016;41.928;25.556;2024-02-14T01:57:04;0.80;;;0.80;;
11911;SDS011;6016;41.928;25.556;2024-02-14T01:59:32;0.88;;;0.80;;
11911;SDS011;6016;41.928;25.556;2024-02-14T02:02:01;1.70;;;0.80;;
11911;SDS011;6016;41.928;25.556;2024-02-14T02:04:28;1.10;;;0.90;;
11911;SDS011;6016;41.928;25.556;2024-02-14T02:06:55;1.38;;;0.90;;
11911;SDS011;6016;41.928;25.556;2024-02-14T02:09:22;0.80;;;0.80;;
11911;SDS011;6016;41.928;25.556;2024-02-14T02:11:51;1.15;;;0.90;;
11911;SDS011;6016;41.928;25.556;2024-02-14T02:14:19;0.80;;;0.80;;
11911;SDS011;6016;41.928;25.556;2024-02-14T02:16:46;2.30;;;0.90;;
11911;SDS011;6016;41.928;25.556;2024-02-14T02:19:14;0.82;;;0.82;;
11911;SDS011;6016;41.928;25.556;2024-02-14T02:21:42;1.05;;;0.90;;
11911;SDS011;6016;41.928;25.556;2024-02-14T02:24:10;1.38;;;0.77;;
11911;SDS011;6016;41.928;25.556;2024-02-14T02:26:38;0.73;;;0.73;;
11911;SDS011;6016;41.928;25.556;2024-02-14T02:29:05;1.00;;;0.90;;
11911;SDS011;6016;41.928;25.556;2024-02-14T02:31:32;0.95;;;0.90;;
11911;SDS011;6016;41.928;25.556;2024-02-14T02:33:59;0.93;;;0.80;;
11911;SDS011;6016;41.928;25.556;2024-02-14T02:36:25;1.08;;;0.88;;
11911;SDS011;6016;41.928;25.556;2024-02-14T02:38:55;1.65;;;0.88;;
11911;SDS011;6016;41.928;25.556;2024-02-14T02:41:24;0.98;;;0.90;;
11911;SDS011;6016;41.928;25.556;2024-02-14T02:43:52;1.13;;;0.90;;
11911;SDS011;6016;41.928;25.556;2024-02-14T02:46:19;1.00;;;0.90;;
11911;SDS011;6016;41.928;25.556;2024-02-14T02:48:47;1.65;;;0.80;;
11911;SDS011;6016;41.928;25.556;2024-02-14T02:51:15;1.00;;;0.90;;
11911;SDS011;6016;41.928;25.556;2024-02-14T02:53:45;1.98;;;1.00;;
11911;SDS011;6016;41.928;25.556;2024-02-14T02:56:13;0.80;;;0.80;;
11911;SDS011;6016;41.928;25.556;2024-02-14T02:58:41;0.85;;;0.82;;
11911;SDS011;6016;41.928;25.556;2024-02-14T03:01:09;1.05;;;0.90;;
11911;SDS011;6016;41.928;25.556;2024-02-14T03:03:37;1.40;;;0.88;;
11911;SDS011;6016;41.928;25.556;2024-02-14T03:06:04;0.80;;;0.80;;
11911;SDS011;6016;41.928;25.556;2024-02-14T03:08:31;1.00;;;0.90;;
11911;SDS011;6016;41.928;25.556;2024-02-14T03:11:02;0.70;;;0.70;;
11911;SDS011;6016;41.928;25.556;2024-02-14T03:13:30;1.30;;;1.00;;
11911;SDS011;6016;41.928;25.556;2024-02-14T03:15:59;1.02;;;0.90;;
11911;SDS011;6016;41.928;25.556;2024-02-14T03:18:26;0.85;;;0.85;;
11911;SDS011;6016;41.928;25.556;2024-02-14T03:20:52;1.63;;;1.10;;
11911;SDS011;6016;41.928;25.556;2024-02-14T03:23:19;1.10;;;0.98;;
11911;SDS011;6016;41.928;25.556;2024-02-14T03:25:47;1.40;;;1.00;;
11911;SDS011;6016;41.928;25.556;2024-02-14T03:28:14;1.15;;;1.02;;
11911;SDS011;6016;41.928;25.556;2024-02-14T03:30:41;1.08;;;1.00;;
11911;SDS011;6016;41.928;25.556;2024-02-14T03:33:10;2.53;;;1.25;;
11911;SDS011;6016;41.928;25.556;2024-02-14T03:35:37;3.28;;;1.10;;
11911;SDS011;6016;41.928;25.556;2024-02-14T03:38:04;1.60;;;1.00;;
11911;SDS011;6016;41.928;25.556;2024-02-14T03:40:33;1.48;;;1.10;;
11911;SDS011;6016;41.928;25.556;2024-02-14T03:43:02;1.27;;;1.00;;
11911;SDS011;6016;41.928;25.556;2024-02-14T03:45:29;1.13;;;1.00;;
11911;SDS011;6016;41.928;25.556;2024-02-14T03:47:56;1.45;;;1.00;;
11911;SDS011;6016;41.928;25.556;2024-02-14T03:50:25;1.98;;;1.15;;
11911;SDS011;6016;41.928;25.556;2024-02-14T03:52:52;0.95;;;0.85;;
11911;SDS011;6016;41.928;25.556;2024-02-14T03:55:20;1.98;;;1.20;;
11911;SDS011;6016;41.928;25.556;2024-02-14T03:57:48;2.47;;;1.33;;
11911;SDS011;6016;41.928;25.556;2024-02-14T04:00:16;1.83;;;1.30;;
11911;SDS011;6016;41.928;25.556;2024-02-14T04:02:44;2.00;;;1.30;;
11911;SDS011;6016;41.928;25.556;2024-02-14T04:05:14;2.03;;;1.40;;
11911;SDS011;6016;41.928;25.556;2024-02-14T04:07:42;2.40;;;1.40;;
11911;SDS011;6016;41.928;25.556;2024-02-14T04:10:14;3.33;;;1.55;;
11911;SDS011;6016;41.928;25.556;2024-02-14T04:12:41;5.55;;;2.15;;
11911;SDS011;6016;41.928;25.556;2024-02-14T04:15:08;3.60;;;1.50;;
11911;SDS011;6016;41.928;25.556;2024-02-14T04:17:35;4.38;;;1.67;;
11911;SDS011;6016;41.928;25.556;2024-02-14T04:20:03;2.35;;;1.40;;
11911;SDS011;6016;41.928;25.556;2024-02-14T04:22:30;2.20;;;1.30;;
11911;SDS011;6016;41.928;25.556;2024-02-14T04:24:59;1.58;;;1.20;;
11911;SDS011;6016;41.928;25.556;2024-02-14T04:27:27;1.60;;;1.30;;
11911;SDS011;6016;41.928;25.556;2024-02-14T04:29:54;1.63;;;1.27;;
11911;SDS011;6016;41.928;25.556;2024-02-14T04:32:21;1.75;;;1.50;;
11911;SDS011;6016;41.928;25.556;2024-02-14T04:34:49;2.53;;;1.40;;
11911;SDS011;6016;41.928;25.556;2024-02-14T04:37:16;3.17;;;1.73;;
11911;SDS011;6016;41.928;25.556;2024-02-14T04:39:44;2.85;;;1.50;;
11911;SDS011;6016;41.928;25.556;2024-02-14T04:42:12;1.80;;;1.38;;
11911;SDS011;6016;41.928;25.556;2024-02-14T04:44:39;2.40;;;1.60;;
11911;SDS011;6016;41.928;25.556;2024-02-14T04:47:06;3.65;;;2.30;;
11911;SDS011;6016;41.928;25.556;2024-02-14T04:49:34;3.00;;;1.70;;
11911;SDS011;6016;41.928;25.556;2024-02-14T04:52:02;2.42;;;1.58;;
11911;SDS011;6016;41.928;25.556;2024-02-14T04:54:29;1.85;;;1.42;;
11911;SDS011;6016;41.928;25.556;2024-02-14T04:56:56;3.05;;;1.80;;
11911;SDS011;6016;41.928;25.556;2024-02-14T04:59:24;3.50;;;1.80;;
11911;SDS011;6016;41.928;25.556;2024-02-14T05:01:51;2.97;;;1.98;;
11911;SDS011;6016;41.928;25.556;2024-02-14T05:04:19;3.20;;;1.70;;
11911;SDS011;6016;41.928;25.556;2024-02-14T05:06:46;2.58;;;1.90;;
11911;SDS011;6016;41.928;25.556;2024-02-14T05:09:13;2.53;;;1.85;;
11911;SDS011;6016;41.928;25.556;2024-02-14T05:11:40;2.20;;;1.45;;
11911;SDS011;6016;41.928;25.556;2024-02-14T05:14:08;5.70;;;2.13;;
11911;SDS011;6016;41.928;25.556;2024-02-14T05:16:36;3.88;;;1.92;;
11911;SDS011;6016;41.928;25.556;2024-02-14T05:19:03;4.07;;;1.90;;
11911;SDS011;6016;41.928;25.556;2024-02-14T05:21:30;3.88;;;2.05;;
11911;SDS011;6016;41.928;25.556;2024-02-14T05:23:57;2.80;;;2.00;;
11911;SDS011;6016;41.928;25.556;2024-02-14T05:26:24;2.67;;;1.77;;
11911;SDS011;6016;41.928;25.556;2024-02-14T05:28:51;4.50;;;2.10;;
11911;SDS011;6016;41.928;25.556;2024-02-14T05:31:18;4.45;;;2.40;;
11911;SDS011;6016;41.928;25.556;2024-02-14T05:33:53;3.60;;;2.20;;
11911;SDS011;6016;41.928;25.556;2024-02-14T05:36:20;3.58;;;2.17;;
11911;SDS011;6016;41.928;25.556;2024-02-14T05:38:50;3.58;;;2.00;;
11911;SDS011;6016;41.928;25.556;2024-02-14T05:41:18;3.38;;;2.30;;
11911;SDS011;6016;41.928;25.556;2024-02-14T05:43:45;4.90;;;2.28;;
11911;SDS011;6016;41.928;25.556;2024-02-14T05:46:12;3.85;;;2.10;;
11911;SDS011;6016;41.928;25.556;2024-02-14T05:48:39;5.70;;;3.05;;
11911;SDS011;6016;41.928;25.556;2024-02-14T05:51:10;5.13;;;2.53;;
11911;SDS011;6016;41.928;25.556;2024-02-14T05:53:40;4.85;;;2.83;;
11911;SDS011;6016;41.928;25.556;2024-02-14T05:56:07;3.58;;;2.20;;
11911;SDS011;6016;41.928;25.556;2024-02-14T05:58:34;3.80;;;2.50;;
11911;SDS011;6016;41.928;25.556;2024-02-14T06:01:02;5.85;;;2.85;;
11911;SDS011;6016;41.928;25.556;2024-02-14T06:03:29;9.73;;;3.63;;
11911;SDS011;6016;41.928;25.556;2024-02-14T06:05:56;6.13;;;3.20;;
11911;SDS011;6016;41.928;25.556;2024-02-14T06:08:27;6.88;;;3.65;;
11911;SDS011;6016;41.928;25.556;2024-02-14T06:10:54;4.75;;;2.90;;
11911;SDS011;6016;41.928;25.556;2024-02-14T06:13:21;6.28;;;2.80;;
11911;SDS011;6016;41.928;25.556;2024-02-14T06:15:48;4.70;;;2.42;;
11911;SDS011;6016;41.928;25.556;2024-02-14T06:18:15;5.10;;;2.78;;
11911;SDS011;6016;41.928;25.556;2024-02-14T06:20:42;4.97;;;2.53;;
11911;SDS011;6016;41.928;25.556;2024-02-14T06:23:09;4.22;;;2.50;;
11911;SDS011;6016;41.928;25.556;2024-02-14T06:25:37;4.63;;;3.00;;
11911;SDS011;6016;41.928;25.556;2024-02-14T06:28:05;6.22;;;3.67;;
11911;SDS011;6016;41.928;25.556;2024-02-14T06:30:32;8.57;;;3.63;;
11911;SDS011;6016;41.928;25.556;2024-02-14T06:32:59;4.63;;;2.90;;
11911;SDS011;6016;41.928;25.556;2024-02-14T06:35:27;6.10;;;3.00;;
11911;SDS011;6016;41.928;25.556;2024-02-14T06:37:54;4.35;;;2.80;;
11911;SDS011;6016;41.928;25.556;2024-02-14T06:40:22;4.40;;;2.63;;
11911;SDS011;6016;41.928;25.556;2024-02-14T06:42:51;3.85;;;2.60;;
11911;SDS011;6016;41.928;25.556;2024-02-14T06:45:19;5.28;;;3.50;;
11911;SDS011;6016;41.928;25.556;2024-02-14T06:47:46;4.47;;;2.78;;
11911;SDS011;6016;41.928;25.556;2024-02-14T06:50:13;6.28;;;3.00;;
11911;SDS011;6016;41.928;25.556;2024-02-14T06:52:40;4.95;;;2.70;;
11911;SDS011;6016;41.928;25.556;2024-02-14T06:55:07;4.13;;;2.60;;
11911;SDS011;6016;41.928;25.556;2024-02-14T06:57:34;3.75;;;2.60;;
11911;SDS011;6016;41.928;25.556;2024-02-14T07:00:03;4.95;;;2.90;;
11911;SDS011;6016;41.928;25.556;2024-02-14T07:02:32;4.88;;;3.05;;
11911;SDS011;6016;41.928;25.556;2024-02-14T07:04:59;4.55;;;2.92;;
11911;SDS011;6016;41.928;25.556;2024-02-14T07:07:27;5.70;;;3.08;;
11911;SDS011;6016;41.928;25.556;2024-02-14T07:09:54;33.53;;;16.13;;
11911;SDS011;6016;41.928;25.556;2024-02-14T07:12:21;11.10;;;5.75;;
11911;SDS011;6016;41.928;25.556;2024-02-14T07:14:48;15.02;;;5.15;;
11911;SDS011;6016;41.928;25.556;2024-02-14T07:17:18;5.40;;;3.55;;
11911;SDS011;6016;41.928;25.556;2024-02-14T07:19:45;8.20;;;4.28;;
11911;SDS011;6016;41.928;25.556;2024-02-14T07:22:14;8.30;;;4.13;;
11911;SDS011;6016;41.928;25.556;2024-02-14T07:24:44;18.15;;;9.00;;
11911;SDS011;6016;41.928;25.556;2024-02-14T07:27:12;23.65;;;11.48;;
11911;SDS011;6016;41.928;25.556;2024-02-14T07:29:40;21.02;;;9.82;;
11911;SDS011;6016;41.928;25.556;2024-02-14T07:32:07;15.38;;;7.03;;
11911;SDS011;6016;41.928;25.556;2024-02-14T07:34:37;14.50;;;8.70;;
11911;SDS011;6016;41.928;25.556;2024-02-14T07:37:04;12.70;;;8.38;;
11911;SDS011;6016;41.928;25.556;2024-02-14T07:39:32;8.82;;;5.18;;
11911;SDS011;6016;41.928;25.556;2024-02-14T07:42:00;8.93;;;6.22;;
11911;SDS011;6016;41.928;25.556;2024-02-14T07:44:27;8.52;;;5.78;;
11911;SDS011;6016;41.928;25.556;2024-02-14T07:46:54;8.15;;;4.60;;
11911;SDS011;6016;41.928;25.556;2024-02-14T07:49:21;8.13;;;4.57;;
11911;SDS011;6016;41.928;25.556;2024-02-14T07:51:49;8.40;;;4.93;;
11911;SDS011;6016;41.928;25.556;2024-02-14T07:54:16;8.40;;;4.32;;
11911;SDS011;6016;41.928;25.556;2024-02-14T07:56:44;8.77;;;5.25;;
11911;SDS011;6016;41.928;25.556;2024-02-14T07:59:11;8.23;;;5.43;;
11911;SDS011;6016;41.928;25.556;2024-02-14T08:01:38;7.80;;;4.70;;
11911;SDS011;6016;41.928;25.556;2024-02-14T08:04:05;8.80;;;5.20;;
11911;SDS011;6016;41.928;25.556;2024-02-14T08:06:32;11.82;;;7.35;;
11911;SDS011;6016;41.928;25.556;2024-02-14T08:09:00;9.55;;;4.88;;
11911;SDS011;6016;41.928;25.556;2024-02-14T08:11:31;8.02;;;4.43;;
11911;SDS011;6016;41.928;25.556;2024-02-14T08:13:58;8.27;;;4.65;;
11911;SDS011;6016;41.928;25.556;2024-02-14T08:16:25;10.27;;;5.03;;
11911;SDS011;6016;41.928;25.556;2024-02-14T08:18:52;7.57;;;4.38;;
11911;SDS011;6016;41.928;25.556;2024-02-14T08:21:24;20.67;;;10.68;;
11911;SDS011;6016;41.928;25.556;2024-02-14T08:23:51;11.65;;;6.28;;
11911;SDS011;6016;41.928;25.556;2024-02-14T08:26:22;10.60;;;5.80;;
11911;SDS011;6016;41.928;25.556;2024-02-14T08:28:49;10.05;;;5.57;;
11911;SDS011;6016;41.928;25.556;2024-02-14T08:31:16;8.98;;;5.03;;
11911;SDS011;6016;41.928;25.556;2024-02-14T08:33:43;9.10;;;4.90;;
11911;SDS011;6016;41.928;25.556;2024-02-14T08:36:10;8.95;;;5.00;;
11911;SDS011;6016;41.928;25.556;2024-02-14T08:38:38;9.43;;;5.90;;
11911;SDS011;6016;41.928;25.556;2024-02-14T08:41:05;12.20;;;6.28;;
11911;SDS011;6016;41.928;25.556;2024-02-14T08:43:34;12.18;;;6.78;;
11911;SDS011;6016;41.928;25.556;2024-02-14T08:46:01;11.85;;;6.45;;
11911;SDS011;6016;41.928;25.556;2024-02-14T08:48:28;7.90;;;4.70;;
11911;SDS011;6016;41.928;25.556;2024-02-14T08:50:59;9.43;;;4.97;;
11911;SDS011;6016;41.928;25.556;2024-02-14T08:53:26;8.95;;;5.35;;
11911;SDS011;6016;41.928;25.556;2024-02-14T08:55:55;9.80;;;5.68;;
11911;SDS011;6016;41.928;25.556;2024-02-14T08:58:23;14.65;;;8.13;;
11911;SDS011;6016;41.928;25.556;2024-02-14T09:00:51;10.52;;;6.05;;
11911;SDS011;6016;41.928;25.556;2024-02-14T09:03:18;12.88;;;7.07;;
11911;SDS011;6016;41.928;25.556;2024-02-14T09:05:45;9.35;;;5.20;;
11911;SDS011;6016;41.928;25.556;2024-02-14T09:08:13;9.27;;;5.60;;
11911;SDS011;6016;41.928;25.556;2024-02-14T09:10:40;9.60;;;5.30;;
11911;SDS011;6016;41.928;25.556;2024-02-14T09:13:07;9.32;;;5.57;;
11911;SDS011;6016;41.928;25.556;2024-02-14T09:15:35;8.73;;;5.00;;
11911;SDS011;6016;41.928;25.556;2024-02-14T09:18:03;7.72;;;4.35;;
11911;SDS011;6016;41.928;25.556;2024-02-14T09:20:30;9.40;;;5.25;;
11911;SDS011;6016;41.928;25.556;2024-02-14T09:22:57;9.27;;;5.38;;
11911;SDS011;6016;41.928;25.556;2024-02-14T09:25:24;7.47;;;4.53;;
11911;SDS011;6016;41.928;25.556;2024-02-14T09:27:51;7.25;;;4.68;;
11911;SDS011;6016;41.928;25.556;2024-02-14T09:30:19;8.70;;;5.60;;
11911;SDS011;6016;41.928;25.556;2024-02-14T09:32:46;9.35;;;5.28;;
11911;SDS011;6016;41.928;25.556;2024-02-14T09:35:17;8.98;;;5.03;;
11911;SDS011;6016;41.928;25.556;2024-02-14T09:37:44;9.88;;;5.07;;
11911;SDS011;6016;41.928;25.556;2024-02-14T09:40:11;9.80;;;5.65;;
11911;SDS011;6016;41.928;25.556;2024-02-14T09:42:42;8.85;;;5.18;;
11911;SDS011;6016;41.928;25.556;2024-02-14T09:45:14;8.48;;;4.72;;
11911;SDS011;6016;41.928;25.556;2024-02-14T09:47:41;7.13;;;4.05;;
11911;SDS011;6016;41.928;25.556;2024-02-14T09:50:09;7.75;;;4.60;;
11911;SDS011;6016;41.928;25.556;2024-02-14T09:52:40;7.38;;;3.95;;
11911;SDS011;6016;41.928;25.556;2024-02-14T09:55:08;7.85;;;4.15;;
11911;SDS011;6016;41.928;25.556;2024-02-14T09:57:36;31.80;;;13.45;;
11911;SDS011;6016;41.928;25.556;2024-02-14T10:00:09;8.23;;;3.92;;
11911;SDS011;6016;41.928;25.556;2024-02-14T10:02:38;14.88;;;6.07;;
11911;SDS011;6016;41.928;25.556;2024-02-14T10:05:05;13.70;;;7.13;;
11911;SDS011;6016;41.928;25.556;2024-02-14T10:07:40;10.60;;;5.72;;
11911;SDS011;6016;41.928;25.556;2024-02-14T10:10:08;9.02;;;5.00;;
11911;SDS011;6016;41.928;25.556;2024-02-14T10:12:36;5.20;;;3.80;;
11911;SDS011;6016;41.928;25.556;2024-02-14T10:15:04;8.73;;;3.85;;
11911;SDS011;6016;41.928;25.556;2024-02-14T10:17:32;4.70;;;3.00;;
11911;SDS011;6016;41.928;25.556;2024-02-14T10:19:59;6.50;;;3.67;;
11911;SDS011;6016;41.928;25.556;2024-02-14T10:22:34;8.03;;;3.67;;
11911;SDS011;6016;41.928;25.556;2024-02-14T10:25:03;5.85;;;3.65;;
11911;SDS011;6016;41.928;25.556;2024-02-14T10:27:33;7.88;;;4.28;;
11911;SDS011;6016;41.928;25.556;2024-02-14T10:30:03;6.78;;;4.60;;
11911;SDS011;6016;41.928;25.556;2024-02-14T10:32:34;8.88;;;4.70;;
11911;SDS011;6016;41.928;25.556;2024-02-14T10:35:03;9.85;;;4.60;;
11911;SDS011;6016;41.928;25.556;2024-02-14T10:37:34;8.27;;;4.97;;
11911;SDS011;6016;41.928;25.556;2024-02-14T10:40:02;9.88;;;5.88;;
11911;SDS011;6016;41.928;25.556;2024-02-14T10:42:31;7.78;;;5.50;;
11911;SDS011;6016;41.928;25.556;2024-02-14T10:44:59;9.20;;;5.50;;
11911;SDS011;6016;41.928;25.556;2024-02-14T10:47:29;9.05;;;5.45;;
11911;SDS011;6016;41.928;25.556;2024-02-14T10:49:57;13.02;;;7.40;;
11911;SDS011;6016;41.928;25.556;2024-02-14T10:52:28;8.52;;;5.07;;
11911;SDS011;6016;41.928;25.556;2024-02-14T10:54:58;8.52;;;4.72;;
11911;SDS011;6016;41.928;25.556;2024-02-14T10:57:29;7.82;;;4.43;;
11911;SDS011;6016;41.928;25.556;2024-02-14T10:59:58;7.40;;;4.20;;
11911;SDS011;6016;41.928;25.556;2024-02-14T11:02:27;6.55;;;3.95;;
11911;SDS011;6016;41.928;25.556;2024-02-14T11:04:55;6.53;;;3.85;;
11911;SDS011;6016;41.928;25.556;2024-02-14T11:07:23;5.78;;;3.47;;
11911;SDS011;6016;41.928;25.556;2024-02-14T11:09:59;6.13;;;3.58;;
11911;SDS011;6016;41.928;25.556;2024-02-14T11:12:32;5.22;;;3.42;;
11911;SDS011;6016;41.928;25.556;2024-02-14T11:15:02;5.97;;;3.88;;
11911;SDS011;6016;41.928;25.556;2024-02-14T11:17:36;7.95;;;4.38;;
11911;SDS011;6016;41.928;25.556;2024-02-14T11:20:11;9.00;;;4.05;;
11911;SDS011;6016;41.928;25.556;2024-02-14T11:22:49;7.32;;;3.80;;
11911;SDS011;6016;41.928;25.556;2024-02-14T11:25:22;7.25;;;4.00;;
11911;SDS011;6016;41.928;25.556;2024-02-14T11:27:56;7.47;;;3.75;;
11911;SDS011;6016;41.928;25.556;2024-02-14T11:30:28;6.65;;;4.10;;
11911;SDS011;6016;41.928;25.556;2024-02-14T11:33:08;6.28;;;4.15;;
11911;SDS011;6016;41.928;25.556;2024-02-14T11:35:45;7.03;;;4.45;;
11911;SDS011;6016;41.928;25.556;2024-02-14T11:38:15;7.30;;;4.50;;
11911;SDS011;6016;41.928;25.556;2024-02-14T11:40:42;8.85;;;4.25;;
11911;SDS011;6016;41.928;25.556;2024-02-14T11:43:12;7.10;;;4.47;;
11911;SDS011;6016;41.928;25.556;2024-02-14T11:45:40;8.82;;;4.72;;
11911;SDS011;6016;41.928;25.556;2024-02-14T11:48:08;10.00;;;5.00;;
11911;SDS011;6016;41.928;25.556;2024-02-14T11:50:38;11.57;;;5.97;;
11911;SDS011;6016;41.928;25.556;2024-02-14T11:53:06;9.13;;;5.55;;
11911;SDS011;6016;41.928;25.556;2024-02-14T11:55:35;9.85;;;5.68;;
11911;SDS011;6016;41.928;25.556;2024-02-14T11:58:06;7.28;;;4.07;;
11911;SDS011;6016;41.928;25.556;2024-02-14T12:00:35;7.90;;;4.95;;
11911;SDS011;6016;41.928;25.556;2024-02-14T12:03:05;8.50;;;5.05;;
11911;SDS011;6016;41.928;25.556;2024-02-14T12:05:33;8.93;;;4.93;;
11911;SDS011;6016;41.928;25.556;2024-02-14T12:08:01;6.22;;;4.13;;
11911;SDS011;6016;41.928;25.556;2024-02-14T12:10:31;9.65;;;4.80;;
11911;SDS011;6016;41.928;25.556;2024-02-14T12:12:58;6.32;;;3.75;;
11911;SDS011;6016;41.928;25.556;2024-02-14T12:15:25;9.32;;;4.75;;
11911;SDS011;6016;41.928;25.556;2024-02-14T12:17:54;6.97;;;3.33;;
11911;SDS011;6016;41.928;25.556;2024-02-14T12:20:21;4.70;;;3.33;;
11911;SDS011;6016;41.928;25.556;2024-02-14T12:22:49;5.32;;;3.33;;
11911;SDS011;6016;41.928;25.556;2024-02-14T12:25:16;4.95;;;3.08;;
11911;SDS011;6016;41.928;25.556;2024-02-14T12:27:49;6.00;;;3.13;;
11911;SDS011;6016;41.928;25.556;2024-02-14T12:30:17;6.82;;;3.80;;
11911;SDS011;6016;41.928;25.556;2024-02-14T12:32:45;5.65;;;3.67;;
11911;SDS011;6016;41.928;25.556;2024-02-14T12:35:14;10.02;;;4.40;;
11911;SDS011;6016;41.928;25.556;2024-02-14T12:37:41;7.75;;;4.80;;
11911;SDS011;6016;41.928;25.556;2024-02-14T12:40:08;12.45;;;6.35;;
11911;SDS011;6016;41.928;25.556;2024-02-14T12:42:36;11.07;;;4.85;;
11911;SDS011;6016;41.928;25.556;2024-02-14T12:45:03;7.78;;;4.07;;
11911;SDS011;6016;41.928;25.556;2024-02-14T12:47:30;6.85;;;4.20;;
11911;SDS011;6016;41.928;25.556;2024-02-14T12:50:00;12.57;;;5.80;;
11911;SDS011;6016;41.928;25.556;2024-02-14T12:52:28;8.23;;;4.65;;
11911;SDS011;6016;41.928;25.556;2024-02-14T12:54:55;9.00;;;4.55;;
11911;SDS011;6016;41.928;25.556;2024-02-14T12:57:22;7.63;;;4.40;;
11911;SDS011;6016;41.928;25.556;2024-02-14T12:59:49;12.73;;;5.72;;
11911;SDS011;6016;41.928;25.556;2024-02-14T13:02:17;8.70;;;5.25;;
11911;SDS011;6016;41.928;25.556;2024-02-14T13:04:44;10.70;;;5.70;;
11911;SDS011;6016;41.928;25.556;2024-02-14T13:07:11;8.32;;;5.45;;
11911;SDS011;6016;41.928;25.556;2024-02-14T13:09:39;10.75;;;5.15;;
11911;SDS011;6016;41.928;25.556;2024-02-14T13:12:06;12.55;;;6.88;;
11911;SDS011;6016;41.928;25.556;2024-02-14T13:14:34;11.13;;;5.85;;
11911;SDS011;6016;41.928;25.556;2024-02-14T13:17:01;10.25;;;6.07;;
11911;SDS011;6016;41.928;25.556;2024-02-14T13:19:30;10.48;;;5.53;;
11911;SDS011;6016;41.928;25.556;2024-02-14T13:21:57;8.98;;;5.68;;
11911;SDS011;6016;41.928;25.556;2024-02-14T13:24:24;10.30;;;5.22;;
11911;SDS011;6016;41.928;25.556;2024-02-14T13:26:52;10.50;;;6.10;;
11911;SDS011;6016;41.928;25.556;2024-02-14T13:29:20;10.50;;;6.55;;
11911;SDS011;6016;41.928;25.556;2024-02-14T13:31:46;13.68;;;6.50;;
11911;SDS011;6016;41.928;25.556;2024-02-14T13:34:13;12.32;;;6.32;;
11911;SDS011;6016;41.928;25.556;2024-02-14T13:36:40;12.85;;;7.05;;
11911;SDS011;6016;41.928;25.556;2024-02-14T13:39:08;12.38;;;7.43;;
11911;SDS011;6016;41.928;25.556;2024-02-14T13:41:34;20.98;;;9.38;;
11911;SDS011;6016;41.928;25.556;2024-02-14T13:44:04;14.73;;;7.05;;
11911;SDS011;6016;41.928;25.556;2024-02-14T13:46:33;13.05;;;6.57;;
11911;SDS011;6016;41.928;25.556;2024-02-14T13:49:00;12.40;;;6.85;;
11911;SDS011;6016;41.928;25.556;2024-02-14T13:51:27;8.93;;;5.45;;
11911;SDS011;6016;41.928;25.556;2024-02-14T13:53:54;11.07;;;5.90;;
11911;SDS011;6016;41.928;25.556;2024-02-14T13:56:21;13.73;;;6.78;;
11911;SDS011;6016;41.928;25.556;2024-02-14T13:58:50;10.63;;;5.80;;
11911;SDS011;6016;41.928;25.556;2024-02-14T14:01:18;12.60;;;5.95;;
11911;SDS011;6016;41.928;25.556;2024-02-14T14:03:45;14.50;;;7.43;;
11911;SDS011;6016;41.928;25.556;2024-02-14T14:06:15;17.83;;;7.38;;
11911;SDS011;6016;41.928;25.556;2024-02-14T14:08:42;10.70;;;6.13;;
11911;SDS011;6016;41.928;25.556;2024-02-14T14:11:10;10.88;;;5.50;;
11911;SDS011;6016;41.928;25.556;2024-02-14T14:13:37;11.02;;;6.18;;
11911;SDS011;6016;41.928;25.556;2024-02-14T14:16:05;12.25;;;6.38;;
11911;SDS011;6016;41.928;25.556;2024-02-14T14:18:35;12.82;;;6.65;;
11911;SDS011;6016;41.928;25.556;2024-02-14T14:21:02;13.48;;;6.88;;
11911;SDS011;6016;41.928;25.556;2024-02-14T14:23:29;14.73;;;7.03;;
11911;SDS011;6016;41.928;25.556;2024-02-14T14:25:57;11.05;;;6.40;;
11911;SDS011;6016;41.928;25.556;2024-02-14T14:28:25;15.77;;;8.60;;
11911;SDS011;6016;41.928;25.556;2024-02-14T14:30:53;11.50;;;6.22;;
11911;SDS011;6016;41.928;25.556;2024-02-14T14:33:21;13.88;;;5.90;;
11911;SDS011;6016;41.928;25.556;2024-02-14T14:35:49;14.65;;;6.28;;
11911;SDS011;6016;41.928;25.556;2024-02-14T14:38:18;12.45;;;6.10;;
11911;SDS011;6016;41.928;25.556;2024-02-14T14:40:46;13.40;;;6.35;;
11911;SDS011;6016;41.928;25.556;2024-02-14T14:43:13;13.55;;;7.15;;
11911;SDS011;6016;41.928;25.556;2024-02-14T14:45:41;8.93;;;6.00;;
11911;SDS011;6016;41.928;25.556;2024-02-14T14:48:08;10.38;;;6.43;;
11911;SDS011;6016;41.928;25.556;2024-02-14T14:50:35;16.35;;;7.13;;